sensor_id;sensor_type;location;lat;lon;timestamp;temperature;humidity
9987;DHT22;5033;46.310;11.214;2022-10-31T00:01:27;14.30;99.90
9987;DHT22;5033;46.310;11.214;2022-10-31T00:03:55;14.30;99.90
9987;DHT22;5033;46.310;11.214;2022-10-31T00:06:23;14.30;99.90
9987;DHT22;5033;46.310;11.214;2022-10-31T00:08:52;14.20;99.90
9987;DHT22;5033;46.310;11.214;2022-10-31T00:11:20;14.20;99.90
9987;DHT22;5033;46.310;11.214;2022-10-31T00:13:48;14.20;99.90
9987;DHT22;5033;46.310;11.214;2022-10-31T00:16:16;14.20;99.90
9987;DHT22;5033;46.310;11.214;2022-10-31T00:18:48;14.20;99.90
9987;DHT22;5033;46.310;11.214;2022-10-31T00:21:16;14.20;99.90
9987;DHT22;5033;46.310;11.214;2022-10-31T00:23:43;14.20;99.90
9987;DHT22;5033;46.310;11.214;2022-10-31T00:26:11;14.20;99.90
9987;DHT22;5033;46.310;11.214;2022-10-31T00:28:38;14.10;99.90
9987;DHT22;5033;46.310;11.214;2022-10-31T00:31:08;14.10;99.90
9987;DHT22;5033;46.310;11.214;2022-10-31T00:33:37;14.10;99.90
9987;DHT22;5033;46.310;11.214;2022-10-31T00:36:10;14.10;99.90
9987;DHT22;5033;46.310;11.214;2022-10-31T00:38:38;14.00;99.90
9987;DHT22;5033;46.310;11.214;2022-10-31T00:41:06;14.00;99.90
9987;DHT22;5033;46.310;11.214;2022-10-31T00:43:34;14.00;99.90
9987;DHT22;5033;46.310;11.214;2022-10-31T00:46:01;14.00;99.90
9987;DHT22;5033;46.310;11.214;2022-10-31T00:48:28;14.00;99.90
9987;DHT22;5033;46.310;11.214;2022-10-31T00:50:56;14.00;99.90
9987;DHT22;5033;46.310;11.214;2022-10-31T00:53:24;13.90;99.90
9987;DHT22;5033;46.310;11.214;2022-10-31T00:55:51;14.00;99.90
9987;DHT22;5033;46.310;11.214;2022-10-31T00:58:19;14.00;99.90
9987;DHT22;5033;46.310;11.214;2022-10-31T01:00:47;14.00;99.90
9987;DHT22;5033;46.310;11.214;2022-10-31T01:03:20;14.00;99.90
9987;DHT22;5033;46.310;11.214;2022-10-31T01:05:56;14.00;99.90
9987;DHT22;5033;46.310;11.214;2022-10-31T01:08:25;13.90;99.90
9987;DHT22;5033;46.310;11.214;2022-10-31T01:11:00;14.00;99.90
9987;DHT22;5033;46.310;11.214;2022-10-31T01:13:27;14.00;99.90
9987;DHT22;5033;46.310;11.214;2022-10-31T01:15:55;13.90;99.90
9987;DHT22;5033;46.310;11.214;2022-10-31T01:18:22;13.90;99.90
9987;DHT22;5033;46.310;11.214;2022-10-31T01:20:57;13.80;99.90
9987;DHT22;5033;46.310;11.214;2022-10-31T01:23:27;13.80;99.90
9987;DHT22;5033;46.310;11.214;2022-10-31T01:26:02;13.70;99.90
9987;DHT22;5033;46.310;11.214;2022-10-31T01:28:30;13.70;99.90
9987;DHT22;5033;46.310;11.214;2022-10-31T01:31:00;13.60;99.90
9987;DHT22;5033;46.310;11.214;2022-10-31T01:33:28;13.60;99.90
9987;DHT22;5033;46.310;11.214;2022-10-31T01:35:55;13.60;99.90
9987;DHT22;5033;46.310;11.214;2022-10-31T01:38:22;13.60;99.90
9987;DHT22;5033;46.310;11.214;2022-10-31T01:40:51;13.50;99.90
9987;DHT22;5033;46.310;11.214;2022-10-31T01:43:19;13.50;99.90
9987;DHT22;5033;46.310;11.214;2022-10-31T01:45:50;13.50;99.90
9987;DHT22;5033;46.310;11.214;2022-10-31T01:48:20;13.40;99.90
9987;DHT22;5033;46.310;11.214;2022-10-31T01:50:48;13.40;99.90
9987;DHT22;5033;46.310;11.214;2022-10-31T01:53:19;13.40;99.90
9987;DHT22;5033;46.310;11.214;2022-10-31T01:55:47;13.40;99.90
9987;DHT22;5033;46.310;11.214;2022-10-31T01:58:20;13.40;99.90
9987;DHT22;5033;46.310;11.214;2022-10-31T02:00:51;13.40;99.90
9987;DHT22;5033;46.310;11.214;2022-10-31T02:03:22;13.50;99.90
9987;DHT22;5033;46.310;11.214;2022-10-31T02:05:49;13.50;99.90
9987;DHT22;5033;46.310;11.214;2022-10-31T02:08:20;13.50;99.90
9987;DHT22;5033;46.310;11.214;2022-10-31T02:10:49;13.50;99.90
9987;DHT22;5033;46.310;11.214;2022-10-31T02:13:19;13.50;99.90
9987;DHT22;5033;46.310;11.214;2022-10-31T02:15:49;13.40;99.90
9987;DHT22;5033;46.310;11.214;2022-10-31T02:18:18;13.40;99.90
9987;DHT22;5033;46.310;11.214;2022-10-31T02:20:53;13.40;99.90
9987;DHT22;5033;46.310;11.214;2022-10-31T02:26:43;13.30;99.90
9987;DHT22;5033;46.310;11.214;2022-10-31T02:32:32;13.30;99.90
9987;DHT22;5033;46.310;11.214;2022-10-31T02:35:10;13.30;99.90
9987;DHT22;5033;46.310;11.214;2022-10-31T02:37:43;13.30;99.90
9987;DHT22;5033;46.310;11.214;2022-10-31T02:40:17;13.30;99.90
9987;DHT22;5033;46.310;11.214;2022-10-31T02:42:53;13.20;99.90
9987;DHT22;5033;46.310;11.214;2022-10-31T02:45:28;13.20;99.90
9987;DHT22;5033;46.310;11.214;2022-10-31T02:48:01;13.20;99.90
9987;DHT22;5033;46.310;11.214;2022-10-31T02:50:33;13.10;99.90
9987;DHT22;5033;46.310;11.214;2022-10-31T02:53:01;13.10;99.90
9987;DHT22;5033;46.310;11.214;2022-10-31T02:55:59;13.10;99.90
9987;DHT22;5033;46.310;11.214;2022-10-31T02:58:31;13.10;99.90
9987;DHT22;5033;46.310;11.214;2022-10-31T03:01:13;13.10;99.90
9987;DHT22;5033;46.310;11.214;2022-10-31T03:03:53;13.10;99.90
9987;DHT22;5033;46.310;11.214;2022-10-31T03:06:29;13.10;99.90
9987;DHT22;5033;46.310;11.214;2022-10-31T03:09:05;13.10;99.90
9987;DHT22;5033;46.310;11.214;2022-10-31T03:11:44;13.10;99.90
9987;DHT22;5033;46.310;11.214;2022-10-31T03:14:16;13.10;99.90
9987;DHT22;5033;46.310;11.214;2022-10-31T03:16:47;13.10;99.90
9987;DHT22;5033;46.310;11.214;2022-10-31T03:19:17;13.00;99.90
9987;DHT22;5033;46.310;11.214;2022-10-31T03:21:49;13.00;99.90
9987;DHT22;5033;46.310;11.214;2022-10-31T03:24:19;13.00;99.90
9987;DHT22;5033;46.310;11.214;2022-10-31T03:26:51;13.00;99.90
9987;DHT22;5033;46.310;11.214;2022-10-31T03:29:22;13.00;99.90
9987;DHT22;5033;46.310;11.214;2022-10-31T03:31:55;13.00;99.90
9987;DHT22;5033;46.310;11.214;2022-10-31T03:34:25;13.00;99.90
9987;DHT22;5033;46.310;11.214;2022-10-31T03:36:56;12.90;99.90
9987;DHT22;5033;46.310;11.214;2022-10-31T03:39:24;12.90;99.90
9987;DHT22;5033;46.310;11.214;2022-10-31T03:41:54;12.90;99.90
9987;DHT22;5033;46.310;11.214;2022-10-31T03:44:24;12.90;99.90
9987;DHT22;5033;46.310;11.214;2022-10-31T03:46:52;12.90;99.90
9987;DHT22;5033;46.310;11.214;2022-10-31T03:49:19;12.80;99.90
9987;DHT22;5033;46.310;11.214;2022-10-31T03:51:52;12.80;99.90
9987;DHT22;5033;46.310;11.214;2022-10-31T03:54:25;12.70;99.90
9987;DHT22;5033;46.310;11.214;2022-10-31T03:56:57;12.70;99.90
9987;DHT22;5033;46.310;11.214;2022-10-31T03:59:28;12.70;99.90
9987;DHT22;5033;46.310;11.214;2022-10-31T04:01:59;12.70;99.90
9987;DHT22;5033;46.310;11.214;2022-10-31T04:04:29;12.80;99.90
9987;DHT22;5033;46.310;11.214;2022-10-31T04:06:59;12.80;99.90
9987;DHT22;5033;46.310;11.214;2022-10-31T04:12:06;12.80;99.90
9987;DHT22;5033;46.310;11.214;2022-10-31T04:14:38;12.80;99.90
9987;DHT22;5033;46.310;11.214;2022-10-31T04:17:09;12.80;99.90
9987;DHT22;5033;46.310;11.214;2022-10-31T04:19:37;12.80;99.90
9987;DHT22;5033;46.310;11.214;2022-10-31T04:22:06;12.80;99.90
9987;DHT22;5033;46.310;11.214;2022-10-31T04:24:33;12.80;99.90
9987;DHT22;5033;46.310;11.214;2022-10-31T04:27:01;12.80;99.90
9987;DHT22;5033;46.310;11.214;2022-10-31T04:29:29;12.70;99.90
9987;DHT22;5033;46.310;11.214;2022-10-31T04:31:56;12.70;99.90
9987;DHT22;5033;46.310;11.214;2022-10-31T04:34:23;12.60;99.90
9987;DHT22;5033;46.310;11.214;2022-10-31T04:36:51;12.60;99.90
9987;DHT22;5033;46.310;11.214;2022-10-31T04:39:20;12.60;99.90
9987;DHT22;5033;46.310;11.214;2022-10-31T04:41:48;12.60;99.90
9987;DHT22;5033;46.310;11.214;2022-10-31T04:44:15;12.50;99.90
9987;DHT22;5033;46.310;11.214;2022-10-31T04:46:43;12.50;99.90
9987;DHT22;5033;46.310;11.214;2022-10-31T04:49:10;12.50;99.90
9987;DHT22;5033;46.310;11.214;2022-10-31T04:51:37;12.50;99.90
9987;DHT22;5033;46.310;11.214;2022-10-31T04:54:05;12.50;99.90
9987;DHT22;5033;46.310;11.214;2022-10-31T04:56:34;12.40;99.90
9987;DHT22;5033;46.310;11.214;2022-10-31T04:59:02;12.50;99.90
9987;DHT22;5033;46.310;11.214;2022-10-31T05:01:29;12.50;99.90
9987;DHT22;5033;46.310;11.214;2022-10-31T05:03:56;12.50;99.90
9987;DHT22;5033;46.310;11.214;2022-10-31T05:06:24;12.40;99.90
9987;DHT22;5033;46.310;11.214;2022-10-31T05:08:51;12.50;99.90
9987;DHT22;5033;46.310;11.214;2022-10-31T05:11:19;12.50;99.90
9987;DHT22;5033;46.310;11.214;2022-10-31T05:13:48;12.40;99.90
9987;DHT22;5033;46.310;11.214;2022-10-31T05:16:15;12.40;99.90
9987;DHT22;5033;46.310;11.214;2022-10-31T05:18:42;12.40;99.90
9987;DHT22;5033;46.310;11.214;2022-10-31T05:21:10;12.40;99.90
9987;DHT22;5033;46.310;11.214;2022-10-31T05:23:37;12.50;99.90
9987;DHT22;5033;46.310;11.214;2022-10-31T05:26:05;12.50;99.90
9987;DHT22;5033;46.310;11.214;2022-10-31T05:28:32;12.50;99.90
9987;DHT22;5033;46.310;11.214;2022-10-31T05:31:02;12.50;99.90
9987;DHT22;5033;46.310;11.214;2022-10-31T05:33:29;12.50;99.90
9987;DHT22;5033;46.310;11.214;2022-10-31T05:35:57;12.50;99.90
9987;DHT22;5033;46.310;11.214;2022-10-31T05:38:24;12.40;99.90
9987;DHT22;5033;46.310;11.214;2022-10-31T05:40:54;12.40;99.90
9987;DHT22;5033;46.310;11.214;2022-10-31T05:43:25;12.30;99.90
9987;DHT22;5033;46.310;11.214;2022-10-31T05:45:53;12.30;99.90
9987;DHT22;5033;46.310;11.214;2022-10-31T05:48:22;12.20;99.90
9987;DHT22;5033;46.310;11.214;2022-10-31T05:50:50;12.20;99.90
9987;DHT22;5033;46.310;11.214;2022-10-31T05:53:18;12.10;99.90
9987;DHT22;5033;46.310;11.214;2022-10-31T05:55:45;12.10;99.90
9987;DHT22;5033;46.310;11.214;2022-10-31T05:58:13;12.10;99.90
9987;DHT22;5033;46.310;11.214;2022-10-31T06:00:41;12.00;99.90
9987;DHT22;5033;46.310;11.214;2022-10-31T06:03:09;12.00;99.90
9987;DHT22;5033;46.310;11.214;2022-10-31T06:05:43;12.00;99.90
9987;DHT22;5033;46.310;11.214;2022-10-31T06:08:10;12.10;99.90
9987;DHT22;5033;46.310;11.214;2022-10-31T06:10:38;12.10;99.90
9987;DHT22;5033;46.310;11.214;2022-10-31T06:13:06;12.20;99.90
9987;DHT22;5033;46.310;11.214;2022-10-31T06:15:33;12.10;99.90
9987;DHT22;5033;46.310;11.214;2022-10-31T06:18:02;12.10;99.90
9987;DHT22;5033;46.310;11.214;2022-10-31T06:20:30;12.20;99.90
9987;DHT22;5033;46.310;11.214;2022-10-31T06:22:59;12.20;99.90
9987;DHT22;5033;46.310;11.214;2022-10-31T06:25:27;12.20;99.90
9987;DHT22;5033;46.310;11.214;2022-10-31T06:27:55;12.20;99.90
9987;DHT22;5033;46.310;11.214;2022-10-31T06:30:23;12.30;99.90
9987;DHT22;5033;46.310;11.214;2022-10-31T06:32:51;12.30;99.90
9987;DHT22;5033;46.310;11.214;2022-10-31T06:35:18;12.20;99.90
9987;DHT22;5033;46.310;11.214;2022-10-31T06:37:51;12.30;99.90
9987;DHT22;5033;46.310;11.214;2022-10-31T06:40:21;12.30;99.90
9987;DHT22;5033;46.310;11.214;2022-10-31T06:42:56;12.40;99.90
9987;DHT22;5033;46.310;11.214;2022-10-31T06:45:24;12.40;99.90
9987;DHT22;5033;46.310;11.214;2022-10-31T06:47:52;12.40;99.90
9987;DHT22;5033;46.310;11.214;2022-10-31T06:50:25;12.50;99.90
9987;DHT22;5033;46.310;11.214;2022-10-31T06:52:52;12.50;99.90
9987;DHT22;5033;46.310;11.214;2022-10-31T06:55:23;12.50;99.90
9987;DHT22;5033;46.310;11.214;2022-10-31T06:57:51;12.60;99.90
9987;DHT22;5033;46.310;11.214;2022-10-31T07:00:21;12.60;99.90
9987;DHT22;5033;46.310;11.214;2022-10-31T07:02:56;12.70;99.90
9987;DHT22;5033;46.310;11.214;2022-10-31T07:05:29;13.10;99.90
9987;DHT22;5033;46.310;11.214;2022-10-31T07:07:59;13.80;99.90
9987;DHT22;5033;46.310;11.214;2022-10-31T07:10:33;14.50;99.90
9987;DHT22;5033;46.310;11.214;2022-10-31T07:13:03;15.20;99.90
9987;DHT22;5033;46.310;11.214;2022-10-31T07:15:34;15.80;99.90
9987;DHT22;5033;46.310;11.214;2022-10-31T07:18:03;16.30;99.90
9987;DHT22;5033;46.310;11.214;2022-10-31T07:20:31;16.80;99.90
9987;DHT22;5033;46.310;11.214;2022-10-31T07:22:59;17.20;99.90
9987;DHT22;5033;46.310;11.214;2022-10-31T07:25:33;17.60;99.90
9987;DHT22;5033;46.310;11.214;2022-10-31T07:28:00;17.90;99.90
9987;DHT22;5033;46.310;11.214;2022-10-31T07:30:28;18.20;99.90
9987;DHT22;5033;46.310;11.214;2022-10-31T07:32:55;18.40;99.90
9987;DHT22;5033;46.310;11.214;2022-10-31T07:35:24;18.40;99.90
9987;DHT22;5033;46.310;11.214;2022-10-31T07:37:52;18.50;99.90
9987;DHT22;5033;46.310;11.214;2022-10-31T07:40:21;18.60;99.90
9987;DHT22;5033;46.310;11.214;2022-10-31T07:42:52;18.70;99.90
9987;DHT22;5033;46.310;11.214;2022-10-31T07:45:20;18.90;99.90
9987;DHT22;5033;46.310;11.214;2022-10-31T07:47:49;19.30;99.90
9987;DHT22;5033;46.310;11.214;2022-10-31T07:50:20;19.70;99.90
9987;DHT22;5033;46.310;11.214;2022-10-31T07:52:48;19.90;99.90
9987;DHT22;5033;46.310;11.214;2022-10-31T07:55:37;20.00;99.90
9987;DHT22;5033;46.310;11.214;2022-10-31T07:58:06;20.20;99.90
9987;DHT22;5033;46.310;11.214;2022-10-31T08:00:38;20.20;99.90
9987;DHT22;5033;46.310;11.214;2022-10-31T08:03:06;20.30;99.90
9987;DHT22;5033;46.310;11.214;2022-10-31T08:05:35;20.50;99.90
9987;DHT22;5033;46.310;11.214;2022-10-31T08:08:03;20.60;99.90
9987;DHT22;5033;46.310;11.214;2022-10-31T08:10:31;20.70;99.90
9987;DHT22;5033;46.310;11.214;2022-10-31T08:13:00;20.90;99.90
9987;DHT22;5033;46.310;11.214;2022-10-31T08:15:30;21.10;99.90
9987;DHT22;5033;46.310;11.214;2022-10-31T08:17:57;21.30;99.90
9987;DHT22;5033;46.310;11.214;2022-10-31T08:20:25;21.50;99.90
9987;DHT22;5033;46.310;11.214;2022-10-31T08:22:54;21.50;99.90
9987;DHT22;5033;46.310;11.214;2022-10-31T08:25:23;21.60;99.90
9987;DHT22;5033;46.310;11.214;2022-10-31T08:27:51;21.70;99.90
9987;DHT22;5033;46.310;11.214;2022-10-31T08:30:19;21.90;99.90
9987;DHT22;5033;46.310;11.214;2022-10-31T08:32:57;21.80;99.90
9987;DHT22;5033;46.310;11.214;2022-10-31T08:35:25;21.80;99.90
9987;DHT22;5033;46.310;11.214;2022-10-31T08:37:53;21.90;99.90
9987;DHT22;5033;46.310;11.214;2022-10-31T08:40:21;22.20;99.90
9987;DHT22;5033;46.310;11.214;2022-10-31T08:42:56;22.40;99.90
9987;DHT22;5033;46.310;11.214;2022-10-31T08:45:24;22.30;99.90
9987;DHT22;5033;46.310;11.214;2022-10-31T08:48:03;22.30;99.90
9987;DHT22;5033;46.310;11.214;2022-10-31T08:50:32;22.40;99.90
9987;DHT22;5033;46.310;11.214;2022-10-31T08:53:03;22.30;99.90
9987;DHT22;5033;46.310;11.214;2022-10-31T08:55:32;22.30;99.90
9987;DHT22;5033;46.310;11.214;2022-10-31T08:57:59;22.40;99.90
9987;DHT22;5033;46.310;11.214;2022-10-31T09:00:27;22.40;99.90
9987;DHT22;5033;46.310;11.214;2022-10-31T09:03:00;22.40;99.90
9987;DHT22;5033;46.310;11.214;2022-10-31T09:05:29;22.50;99.90
9987;DHT22;5033;46.310;11.214;2022-10-31T09:07:57;22.70;99.90
9987;DHT22;5033;46.310;11.214;2022-10-31T09:10:26;22.80;99.90
9987;DHT22;5033;46.310;11.214;2022-10-31T09:12:56;22.90;99.90
9987;DHT22;5033;46.310;11.214;2022-10-31T09:15:24;22.90;99.90
9987;DHT22;5033;46.310;11.214;2022-10-31T09:17:52;22.90;99.90
9987;DHT22;5033;46.310;11.214;2022-10-31T09:20:21;23.00;99.90
9987;DHT22;5033;46.310;11.214;2022-10-31T09:22:55;22.90;99.90
9987;DHT22;5033;46.310;11.214;2022-10-31T09:25:23;22.90;99.90
9987;DHT22;5033;46.310;11.214;2022-10-31T09:27:51;22.80;99.90
9987;DHT22;5033;46.310;11.214;2022-10-31T09:30:18;22.90;99.90
9987;DHT22;5033;46.310;11.214;2022-10-31T09:32:46;22.70;99.90
9987;DHT22;5033;46.310;11.214;2022-10-31T09:35:13;22.60;99.90
9987;DHT22;5033;46.310;11.214;2022-10-31T09:37:42;22.80;99.90
9987;DHT22;5033;46.310;11.214;2022-10-31T09:40:10;22.80;99.90
9987;DHT22;5033;46.310;11.214;2022-10-31T09:42:54;22.80;99.90
9987;DHT22;5033;46.310;11.214;2022-10-31T09:45:28;22.70;99.90
9987;DHT22;5033;46.310;11.214;2022-10-31T09:48:25;22.80;99.90
9987;DHT22;5033;46.310;11.214;2022-10-31T09:50:57;22.90;99.90
9987;DHT22;5033;46.310;11.214;2022-10-31T09:53:31;23.10;99.90
9987;DHT22;5033;46.310;11.214;2022-10-31T09:56:01;23.30;99.90
9987;DHT22;5033;46.310;11.214;2022-10-31T09:58:30;23.40;99.90
9987;DHT22;5033;46.310;11.214;2022-10-31T10:01:01;23.40;99.90
9987;DHT22;5033;46.310;11.214;2022-10-31T10:03:34;23.20;99.90
9987;DHT22;5033;46.310;11.214;2022-10-31T10:06:09;23.30;99.90
9987;DHT22;5033;46.310;11.214;2022-10-31T10:08:41;23.50;99.90
9987;DHT22;5033;46.310;11.214;2022-10-31T10:11:31;23.40;99.90
9987;DHT22;5033;46.310;11.214;2022-10-31T10:14:23;23.40;99.90
9987;DHT22;5033;46.310;11.214;2022-10-31T10:17:02;23.40;99.90
9987;DHT22;5033;46.310;11.214;2022-10-31T10:22:38;23.40;99.90
9987;DHT22;5033;46.310;11.214;2022-10-31T10:25:31;23.70;99.90
9987;DHT22;5033;46.310;11.214;2022-10-31T10:28:10;23.70;99.90
9987;DHT22;5033;46.310;11.214;2022-10-31T10:30:43;23.70;99.90
9987;DHT22;5033;46.310;11.214;2022-10-31T10:33:16;23.70;99.90
9987;DHT22;5033;46.310;11.214;2022-10-31T10:35:49;23.60;99.90
9987;DHT22;5033;46.310;11.214;2022-10-31T10:38:23;23.50;99.90
9987;DHT22;5033;46.310;11.214;2022-10-31T10:40:55;23.30;99.90
9987;DHT22;5033;46.310;11.214;2022-10-31T10:43:29;23.30;99.90
9987;DHT22;5033;46.310;11.214;2022-10-31T10:46:11;23.40;99.90
9987;DHT22;5033;46.310;11.214;2022-10-31T10:49:03;23.40;99.90
9987;DHT22;5033;46.310;11.214;2022-10-31T10:51:38;23.60;99.90
9987;DHT22;5033;46.310;11.214;2022-10-31T10:54:26;23.60;99.90
9987;DHT22;5033;46.310;11.214;2022-10-31T11:00:38;23.30;99.90
9987;DHT22;5033;46.310;11.214;2022-10-31T11:03:07;23.00;99.90
9987;DHT22;5033;46.310;11.214;2022-10-31T11:05:37;23.00;99.90
9987;DHT22;5033;46.310;11.214;2022-10-31T11:08:06;23.00;99.90
9987;DHT22;5033;46.310;11.214;2022-10-31T11:10:34;23.00;99.90
9987;DHT22;5033;46.310;11.214;2022-10-31T11:13:06;22.80;99.90
9987;DHT22;5033;46.310;11.214;2022-10-31T11:15:49;22.80;99.90
9987;DHT22;5033;46.310;11.214;2022-10-31T11:18:21;22.80;99.90
9987;DHT22;5033;46.310;11.214;2022-10-31T11:20:51;23.00;99.90
9987;DHT22;5033;46.310;11.214;2022-10-31T11:23:20;23.30;99.90
9987;DHT22;5033;46.310;11.214;2022-10-31T11:25:54;23.50;99.90
9987;DHT22;5033;46.310;11.214;2022-10-31T11:28:22;23.60;99.90
9987;DHT22;5033;46.310;11.214;2022-10-31T11:30:52;23.50;99.90
9987;DHT22;5033;46.310;11.214;2022-10-31T11:33:25;23.40;99.90
9987;DHT22;5033;46.310;11.214;2022-10-31T11:35:53;23.40;99.90
9987;DHT22;5033;46.310;11.214;2022-10-31T11:38:23;23.10;99.90
9987;DHT22;5033;46.310;11.214;2022-10-31T11:40:53;22.90;99.90
9987;DHT22;5033;46.310;11.214;2022-10-31T11:43:21;22.90;99.90
9987;DHT22;5033;46.310;11.214;2022-10-31T11:45:50;23.00;99.90
9987;DHT22;5033;46.310;11.214;2022-10-31T11:48:19;23.10;99.90
9987;DHT22;5033;46.310;11.214;2022-10-31T11:50:51;23.00;99.90
9987;DHT22;5033;46.310;11.214;2022-10-31T11:53:27;23.00;99.90
9987;DHT22;5033;46.310;11.214;2022-10-31T11:56:05;23.20;99.90
9987;DHT22;5033;46.310;11.214;2022-10-31T11:58:32;23.40;99.90
9987;DHT22;5033;46.310;11.214;2022-10-31T12:01:01;23.40;99.90
9987;DHT22;5033;46.310;11.214;2022-10-31T12:03:42;23.60;99.90
9987;DHT22;5033;46.310;11.214;2022-10-31T12:06:15;23.60;99.90
9987;DHT22;5033;46.310;11.214;2022-10-31T12:08:44;23.50;99.90
9987;DHT22;5033;46.310;11.214;2022-10-31T12:11:26;23.40;99.90
9987;DHT22;5033;46.310;11.214;2022-10-31T12:14:08;23.20;99.90
9987;DHT22;5033;46.310;11.214;2022-10-31T12:16:44;23.10;99.90
9987;DHT22;5033;46.310;11.214;2022-10-31T12:19:20;23.00;99.90
9987;DHT22;5033;46.310;11.214;2022-10-31T12:22:05;23.20;99.90
9987;DHT22;5033;46.310;11.214;2022-10-31T12:24:52;23.20;99.90
9987;DHT22;5033;46.310;11.214;2022-10-31T12:27:34;23.10;99.90
9987;DHT22;5033;46.310;11.214;2022-10-31T12:30:15;22.90;99.90
9987;DHT22;5033;46.310;11.214;2022-10-31T12:33:07;22.80;99.90
9987;DHT22;5033;46.310;11.214;2022-10-31T12:35:46;22.70;99.90
9987;DHT22;5033;46.310;11.214;2022-10-31T12:38:37;22.50;99.90
9987;DHT22;5033;46.310;11.214;2022-10-31T12:41:20;22.30;99.90
9987;DHT22;5033;46.310;11.214;2022-10-31T12:43:55;22.40;99.90
9987;DHT22;5033;46.310;11.214;2022-10-31T12:46:32;22.40;99.90
9987;DHT22;5033;46.310;11.214;2022-10-31T12:49:30;22.30;99.90
9987;DHT22;5033;46.310;11.214;2022-10-31T12:52:14;22.10;99.90
9987;DHT22;5033;46.310;11.214;2022-10-31T12:55:08;22.10;99.90
9987;DHT22;5033;46.310;11.214;2022-10-31T12:57:40;22.20;99.90
9987;DHT22;5033;46.310;11.214;2022-10-31T13:00:12;22.30;99.90
9987;DHT22;5033;46.310;11.214;2022-10-31T13:03:00;22.40;99.90
9987;DHT22;5033;46.310;11.214;2022-10-31T13:05:36;22.40;99.90
9987;DHT22;5033;46.310;11.214;2022-10-31T13:08:07;22.60;99.90
9987;DHT22;5033;46.310;11.214;2022-10-31T13:10:40;22.80;99.90
9987;DHT22;5033;46.310;11.214;2022-10-31T13:13:20;22.80;99.90
9987;DHT22;5033;46.310;11.214;2022-10-31T13:15:51;22.80;99.90
9987;DHT22;5033;46.310;11.214;2022-10-31T13:18:26;22.60;99.90
9987;DHT22;5033;46.310;11.214;2022-10-31T13:20:58;22.60;99.90
9987;DHT22;5033;46.310;11.214;2022-10-31T13:23:28;22.50;99.90
9987;DHT22;5033;46.310;11.214;2022-10-31T13:25:58;22.50;99.90
9987;DHT22;5033;46.310;11.214;2022-10-31T13:28:31;22.50;99.90
9987;DHT22;5033;46.310;11.214;2022-10-31T13:31:00;22.50;99.90
9987;DHT22;5033;46.310;11.214;2022-10-31T13:33:31;22.50;99.90
9987;DHT22;5033;46.310;11.214;2022-10-31T13:36:12;22.50;99.90
9987;DHT22;5033;46.310;11.214;2022-10-31T13:38:46;22.60;99.90
9987;DHT22;5033;46.310;11.214;2022-10-31T13:41:31;22.70;99.90
9987;DHT22;5033;46.310;11.214;2022-10-31T13:44:01;22.70;99.90
9987;DHT22;5033;46.310;11.214;2022-10-31T13:46:37;22.80;99.90
9987;DHT22;5033;46.310;11.214;2022-10-31T13:49:24;22.70;99.90
9987;DHT22;5033;46.310;11.214;2022-10-31T13:52:06;22.70;99.90
9987;DHT22;5033;46.310;11.214;2022-10-31T13:54:41;22.50;99.90
9987;DHT22;5033;46.310;11.214;2022-10-31T13:57:16;22.40;99.90
9987;DHT22;5033;46.310;11.214;2022-10-31T13:59:51;22.40;99.90
9987;DHT22;5033;46.310;11.214;2022-10-31T14:02:25;22.40;99.90
9987;DHT22;5033;46.310;11.214;2022-10-31T14:04:56;22.40;99.90
9987;DHT22;5033;46.310;11.214;2022-10-31T14:07:27;22.40;99.90
9987;DHT22;5033;46.310;11.214;2022-10-31T14:09:57;22.40;99.90
9987;DHT22;5033;46.310;11.214;2022-10-31T14:12:29;22.40;99.90
9987;DHT22;5033;46.310;11.214;2022-10-31T14:15:01;22.40;99.90
9987;DHT22;5033;46.310;11.214;2022-10-31T14:17:36;22.30;99.90
9987;DHT22;5033;46.310;11.214;2022-10-31T14:20:32;22.20;99.90
9987;DHT22;5033;46.310;11.214;2022-10-31T14:23:13;21.90;99.90
9987;DHT22;5033;46.310;11.214;2022-10-31T14:26:30;21.70;99.90
9987;DHT22;5033;46.310;11.214;2022-10-31T14:29:00;21.50;99.90
9987;DHT22;5033;46.310;11.214;2022-10-31T14:31:35;21.30;99.90
9987;DHT22;5033;46.310;11.214;2022-10-31T14:34:21;21.10;99.90
9987;DHT22;5033;46.310;11.214;2022-10-31T14:37:05;21.00;99.90
9987;DHT22;5033;46.310;11.214;2022-10-31T14:39:42;20.80;99.90
9987;DHT22;5033;46.310;11.214;2022-10-31T14:42:27;20.70;99.90
9987;DHT22;5033;46.310;11.214;2022-10-31T14:45:25;20.50;99.90
9987;DHT22;5033;46.310;11.214;2022-10-31T14:48:05;20.50;99.90
9987;DHT22;5033;46.310;11.214;2022-10-31T14:50:43;20.40;99.90
9987;DHT22;5033;46.310;11.214;2022-10-31T14:53:17;20.30;99.90
9987;DHT22;5033;46.310;11.214;2022-10-31T14:55:49;20.30;99.90
9987;DHT22;5033;46.310;11.214;2022-10-31T14:58:21;20.20;99.90
9987;DHT22;5033;46.310;11.214;2022-10-31T15:00:52;20.20;99.90
9987;DHT22;5033;46.310;11.214;2022-10-31T15:03:25;20.10;99.90
9987;DHT22;5033;46.310;11.214;2022-10-31T15:05:58;20.00;99.90
9987;DHT22;5033;46.310;11.214;2022-10-31T15:08:35;19.90;99.90
9987;DHT22;5033;46.310;11.214;2022-10-31T15:11:09;19.90;99.90
9987;DHT22;5033;46.310;11.214;2022-10-31T15:13:42;19.90;99.90
9987;DHT22;5033;46.310;11.214;2022-10-31T15:16:12;19.80;99.90
9987;DHT22;5033;46.310;11.214;2022-10-31T15:18:47;19.80;99.90
9987;DHT22;5033;46.310;11.214;2022-10-31T15:21:16;19.60;99.90
9987;DHT22;5033;46.310;11.214;2022-10-31T15:23:44;19.60;99.90
9987;DHT22;5033;46.310;11.214;2022-10-31T15:26:17;19.50;99.90
9987;DHT22;5033;46.310;11.214;2022-10-31T15:28:56;19.50;99.90
9987;DHT22;5033;46.310;11.214;2022-10-31T15:31:25;19.40;99.90
9987;DHT22;5033;46.310;11.214;2022-10-31T15:33:54;19.30;99.90
9987;DHT22;5033;46.310;11.214;2022-10-31T15:36:24;19.30;99.90
9987;DHT22;5033;46.310;11.214;2022-10-31T15:38:52;19.30;99.90
9987;DHT22;5033;46.310;11.214;2022-10-31T15:41:30;19.20;99.90
9987;DHT22;5033;46.310;11.214;2022-10-31T15:44:02;19.20;99.90
9987;DHT22;5033;46.310;11.214;2022-10-31T15:46:31;19.00;99.90
9987;DHT22;5033;46.310;11.214;2022-10-31T15:49:00;19.00;99.90
9987;DHT22;5033;46.310;11.214;2022-10-31T15:51:30;18.90;99.90
9987;DHT22;5033;46.310;11.214;2022-10-31T15:53:59;18.80;99.90
9987;DHT22;5033;46.310;11.214;2022-10-31T15:56:30;18.70;99.90
9987;DHT22;5033;46.310;11.214;2022-10-31T15:59:00;18.60;99.90
9987;DHT22;5033;46.310;11.214;2022-10-31T16:01:29;18.50;99.90
9987;DHT22;5033;46.310;11.214;2022-10-31T16:04:00;18.40;99.90
9987;DHT22;5033;46.310;11.214;2022-10-31T16:06:28;18.30;99.90
9987;DHT22;5033;46.310;11.214;2022-10-31T16:08:55;18.20;99.90
9987;DHT22;5033;46.310;11.214;2022-10-31T16:11:27;18.10;99.90
9987;DHT22;5033;46.310;11.214;2022-10-31T16:14:01;18.00;99.90
9987;DHT22;5033;46.310;11.214;2022-10-31T16:16:31;17.90;99.90
9987;DHT22;5033;46.310;11.214;2022-10-31T16:19:00;17.80;99.90
9987;DHT22;5033;46.310;11.214;2022-10-31T16:21:30;17.80;99.90
9987;DHT22;5033;46.310;11.214;2022-10-31T16:24:01;17.70;99.90
9987;DHT22;5033;46.310;11.214;2022-10-31T16:26:29;17.70;99.90
9987;DHT22;5033;46.310;11.214;2022-10-31T16:28:58;17.70;99.90
9987;DHT22;5033;46.310;11.214;2022-10-31T16:31:30;17.70;99.90